Le Suroit — FZVN — position and weather

sailwx.info

Track history (hours):
 
Tides and Currents Weather Stations Pressure Air Temp Water Temp Dewpoint Dewpoint Depression Visibility Wind Speed Wind Dir Waves Ship Positions

Oceanographic research ship Le Suroit (France)

Detailed information on ship capabilities available from University of Delaware's Ocean Information Center.

Last reported at 2014-Dec-11 14:33 UTC. Time now 2014-Dec-20 08:45 UTC.
Position N 43°06' E 005°53'.
Warning: this ship's position is 8 days out of date.

Length 57 m; beam 11 m.

MMSI: 227223000.

Date/timePositionNaut miles runAvg speedWind from/ knotsBaromVisibWave heightAir tempDewpointWater temp
2014-Dec-11 14:33N 43°06' E 005°53'0 0.0
2014-Dec-11 13:33N 43°06' E 005°53'0 0.0
2014-Dec-11 12:33N 43°06' E 005°53'0 0.0
2014-Dec-11 11:33N 43°06' E 005°53'0 0.0
2014-Dec-11 10:33N 43°06' E 005°53'0 0.0
2014-Dec-11 09:33N 43°06' E 005°53'0 0.0
2014-Dec-11 08:33N 43°06' E 005°53'0 0.0
2014-Dec-11 07:34N 43°06' E 005°53'0 0.0
2014-Dec-11 06:33N 43°06' E 005°53'0 0.0
2014-Dec-11 05:34N 43°06' E 005°53'0 0.0
2014-Dec-11 04:33N 43°06' E 005°53'0 0.0
2014-Dec-11 03:33N 43°06' E 005°53'0 0.0
2014-Dec-11 02:33N 43°06' E 005°53'0 0.0
2014-Dec-11 01:33N 43°06' E 005°53'0 0.0
2014-Dec-11 00:34N 43°06' E 005°53'0 0.0
2014-Dec-10 23:33N 43°06' E 005°53'0 0.0
2014-Dec-10 22:33N 43°06' E 005°53'0 0.0
2014-Dec-10 21:33N 43°06' E 005°53'0 0.0
2014-Dec-10 20:33N 43°06' E 005°53'0 0.0
2014-Dec-10 19:34N 43°06' E 005°53'0 0.0
2014-Dec-10 18:33N 43°06' E 005°53'0 0.0
2014-Dec-10 17:34N 43°06' E 005°53'0 0.0
2014-Dec-10 16:33N 43°06' E 005°53'0 0.0
2014-Dec-10 15:33N 43°06' E 005°53'0 0.0
2014-Dec-10 14:33N 43°06' E 005°53'0 0.0
2014-Dec-09 09:20N 43°06' E 005°53'0 0.0
2014-Dec-09 08:33N 43°06' E 005°53'0 0.0
2014-Dec-09 07:33N 43°06' E 005°53'0 0.0
2014-Dec-09 06:33N 43°06' E 005°53'0 0.0
2014-Dec-09 05:33N 43°06' E 005°53'0 0.0
2014-Dec-09 04:33N 43°06' E 005°53'0 0.0
2014-Dec-09 03:33N 43°06' E 005°53'0 0.0
2014-Dec-09 02:33N 43°06' E 005°53'0 0.0
2014-Dec-09 01:33N 43°06' E 005°53'0 0.0
2014-Dec-09 00:33N 43°06' E 005°53'0 0.0
2014-Dec-08 23:33N 43°06' E 005°53'0 0.0
2014-Dec-08 22:33N 43°06' E 005°53'0 0.0
2014-Dec-08 21:33N 43°06' E 005°53'0 0.0
2014-Dec-08 20:33N 43°06' E 005°53'33 5.2
2014-Dec-08 14:19N 43°08' E 006°38'911.4
2014-Dec-08 13:33N 43°12' E 006°48'4 4.1
2014-Dec-08 12:33N 43°15' E 006°53'1 0.7
2014-Dec-08 11:25N 43°14' E 006°52'1 1.4
2014-Dec-08 10:33N 43°15' E 006°51'1 1.0
2014-Dec-08 09:33N 43°15' E 006°50'1 1.0
2014-Dec-08 08:20N 43°16' E 006°49'0 0.1
2014-Dec-08 07:33N 43°16' E 006°49'0 0.2
2014-Dec-08 06:33N 43°16' E 006°49'1 1.0
2014-Dec-08 05:33N 43°15' E 006°50'4 4.0
2014-Dec-08 04:33N 43°13' E 006°46'7 6.8
2014-Dec-08 03:33N 43°08' E 006°38'2 1.6
2014-Dec-08 02:14N 43°08' E 006°35'1 0.3
2014-Dec-07 22:31N 43°09' E 006°34'0 0.3
2014-Dec-07 21:30N 43°09' E 006°34'1 1.2
2014-Dec-07 20:32N 43°08' E 006°33'11 8.9
2014-Dec-07 19:20N 43°04' E 006°19'10 8.7
2014-Dec-07 18:13N 43°01' E 006°07'6 9.1
2014-Dec-07 17:33N 43°04' E 005°60'5 5.3
2014-Dec-07 16:31N 43°06' E 005°53'0 0.0
2014-Dec-07 15:31N 43°06' E 005°53'0 0.0
2014-Dec-07 14:31N 43°06' E 005°53'0 0.0
2014-Dec-07 13:28N 43°06' E 005°53'0 0.0
2014-Dec-07 12:34N 43°06' E 005°53'0 0.0
2014-Dec-07 11:33N 43°06' E 005°53'0 0.0
2014-Dec-07 10:33N 43°06' E 005°53'0 0.0
2014-Dec-07 09:32N 43°06' E 005°53'0 0.0
2014-Dec-07 08:32N 43°06' E 005°53'0 0.0
2014-Dec-07 07:31N 43°06' E 005°53'0 0.0
2014-Dec-07 06:31N 43°06' E 005°53'0 0.0
2014-Dec-07 05:34N 43°06' E 005°53'0 0.0
2014-Dec-07 04:33N 43°06' E 005°53'0 0.0
2014-Dec-07 03:33N 43°06' E 005°53'0 0.0
2014-Dec-07 02:32N 43°06' E 005°53'0 0.0
2014-Dec-07 01:32N 43°06' E 005°53'0 0.0
2014-Dec-07 00:31N 43°06' E 005°53'0 0.0
2014-Dec-06 23:31N 43°06' E 005°53'0 0.0
2014-Dec-06 22:33N 43°06' E 005°53'0 0.0
2014-Dec-06 21:33N 43°06' E 005°53'0 0.0
2014-Dec-06 20:33N 43°06' E 005°53'0 0.0
2014-Dec-06 19:32N 43°06' E 005°53'0 0.0
2014-Dec-06 18:32N 43°06' E 005°53'0 0.0
2014-Dec-06 17:31N 43°06' E 005°53'0 0.0
2014-Dec-06 16:31N 43°06' E 005°53'0 0.0
2014-Dec-06 15:33N 43°06' E 005°53'0 0.0
2014-Dec-06 14:33N 43°06' E 005°53'0 0.0
2014-Dec-06 13:33N 43°06' E 005°53'0 0.0
2014-Dec-06 12:32N 43°06' E 005°53'0 0.0
2014-Dec-06 11:32N 43°06' E 005°53'0 0.0
2014-Dec-06 10:31N 43°06' E 005°53'0 0.0
2014-Dec-06 09:31N 43°06' E 005°53'0 0.0
2014-Dec-06 08:33N 43°06' E 005°53'0 0.0
2014-Dec-06 07:33N 43°06' E 005°53'0 0.0
2014-Dec-06 06:32N 43°06' E 005°53'0 0.0
2014-Dec-06 05:32N 43°06' E 005°53'0 0.0
2014-Dec-06 04:32N 43°06' E 005°53'0 0.0
2014-Dec-06 03:31N 43°06' E 005°53'0 0.0
2014-Dec-06 02:31N 43°06' E 005°53'0 0.0
2014-Dec-06 01:33N 43°06' E 005°53'0 0.0
2014-Dec-06 00:33N 43°06' E 005°53'0 0.0
2014-Dec-05 23:32N 43°06' E 005°53'0 0.0
2014-Dec-05 22:32N 43°06' E 005°53'0 0.0
2014-Dec-05 21:32N 43°06' E 005°53'0 0.0
2014-Dec-05 20:31N 43°06' E 005°53'0 0.0
2014-Dec-05 19:31N 43°06' E 005°53'0 0.0
2014-Dec-05 18:33N 43°06' E 005°53'0 0.0
2014-Dec-05 17:32N 43°06' E 005°53'0 0.2
2014-Dec-05 16:33N 43°06' E 005°53'5 4.7
2014-Dec-05 15:33N 43°05' E 005°59'26 1.0
2014-Dec-04 12:33N 43°09' E 006°34'0 0.3
2014-Dec-04 11:31N 43°09' E 006°34'0 0.1
2014-Dec-04 10:12N 43°09' E 006°34'0 0.1
2014-Dec-04 09:28N 43°09' E 006°34'6 6.1
2014-Dec-04 08:33N 43°10' E 006°42'27 1.0
2014-Dec-03 05:19N 43°04' E 006°05'0 0.0
2014-Dec-02 23:32N 43°04' E 006°05'0 0.0
2014-Dec-02 21:33N 43°04' E 006°05'0 0.0
2014-Dec-02 17:31N 43°04' E 006°05'0 0.0
2014-Dec-02 16:33N 43°04' E 006°05'0 0.0
2014-Dec-02 15:33N 43°04' E 006°05'0 0.0
2014-Dec-02 14:33N 43°04' E 006°05'0 0.0
2014-Dec-02 13:32N 43°04' E 006°05'0 0.0
2014-Dec-02 12:32N 43°04' E 006°05'0 0.0
2014-Dec-02 11:31N 43°04' E 006°05'0 0.0
2014-Dec-02 10:31N 43°04' E 006°05'0 0.0
2014-Dec-02 09:33N 43°04' E 006°05'0 0.0
2014-Dec-02 08:30N 43°04' E 006°05'0 0.0
2014-Dec-02 07:29N 43°04' E 006°05'0 0.0
2014-Dec-02 06:32N 43°04' E 006°05'0 0.0
2014-Dec-02 05:31N 43°04' E 006°05'0 0.0
2014-Dec-02 04:31N 43°04' E 006°05'0 0.0
2014-Dec-02 03:31N 43°04' E 006°05'0 0.0
2014-Dec-02 02:33N 43°04' E 006°05'0 0.0
2014-Dec-02 01:33N 43°04' E 006°05'0 0.0
2014-Dec-02 00:32N 43°04' E 006°05'0 0.0
2014-Dec-01 23:32N 43°04' E 006°05'0 0.0
2014-Dec-01 22:31N 43°04' E 006°05'0 0.0
2014-Dec-01 21:31N 43°04' E 006°05'0 0.0
2014-Dec-01 20:28N 43°04' E 006°05'0 0.0
2014-Dec-01 19:33N 43°04' E 006°05'0 0.0
2014-Dec-01 18:33N 43°04' E 006°05'0 0.0
2014-Dec-01 17:32N 43°04' E 006°05'0 0.0
2014-Dec-01 16:32N 43°04' E 006°05'0 0.0
2014-Dec-01 15:31N 43°04' E 006°05'  
Track history (hours):
 
Tides and Currents Weather Stations Pressure Air Temp Water Temp Dewpoint Dewpoint Depression Visibility Wind Speed Wind Dir Waves Ship Positions

Oceanographic research ship Le Suroit (France)

Detailed information on ship capabilities available from University of Delaware's Ocean Information Center.

Last reported at 2014-Dec-11 14:33 UTC. Time now 2014-Dec-20 08:45 UTC.
Position N 43°06' E 005°53'.
Warning: this ship's position is 8 days out of date.

Length 57 m; beam 11 m.

MMSI: 227223000.

Date/timePositionNaut miles runAvg speedWind from/ knotsBaromVisibWave heightAir tempDewpointWater temp
2014-Dec-11 14:33N 43°06' E 005°53'0 0.0
2014-Dec-11 13:33N 43°06' E 005°53'0 0.0
2014-Dec-11 12:33N 43°06' E 005°53'0 0.0
2014-Dec-11 11:33N 43°06' E 005°53'0 0.0
2014-Dec-11 10:33N 43°06' E 005°53'0 0.0
2014-Dec-11 09:33N 43°06' E 005°53'0 0.0
2014-Dec-11 08:33N 43°06' E 005°53'0 0.0
2014-Dec-11 07:34N 43°06' E 005°53'0 0.0
2014-Dec-11 06:33N 43°06' E 005°53'0 0.0
2014-Dec-11 05:34N 43°06' E 005°53'0 0.0
2014-Dec-11 04:33N 43°06' E 005°53'0 0.0
2014-Dec-11 03:33N 43°06' E 005°53'0 0.0
2014-Dec-11 02:33N 43°06' E 005°53'0 0.0
2014-Dec-11 01:33N 43°06' E 005°53'0 0.0
2014-Dec-11 00:34N 43°06' E 005°53'0 0.0
2014-Dec-10 23:33N 43°06' E 005°53'0 0.0
2014-Dec-10 22:33N 43°06' E 005°53'0 0.0
2014-Dec-10 21:33N 43°06' E 005°53'0 0.0
2014-Dec-10 20:33N 43°06' E 005°53'0 0.0
2014-Dec-10 19:34N 43°06' E 005°53'0 0.0
2014-Dec-10 18:33N 43°06' E 005°53'0 0.0
2014-Dec-10 17:34N 43°06' E 005°53'0 0.0
2014-Dec-10 16:33N 43°06' E 005°53'0 0.0
2014-Dec-10 15:33N 43°06' E 005°53'0 0.0
2014-Dec-10 14:33N 43°06' E 005°53'0 0.0
2014-Dec-09 09:20N 43°06' E 005°53'0 0.0
2014-Dec-09 08:33N 43°06' E 005°53'0 0.0
2014-Dec-09 07:33N 43°06' E 005°53'0 0.0
2014-Dec-09 06:33N 43°06' E 005°53'0 0.0
2014-Dec-09 05:33N 43°06' E 005°53'0 0.0
2014-Dec-09 04:33N 43°06' E 005°53'0 0.0
2014-Dec-09 03:33N 43°06' E 005°53'0 0.0
2014-Dec-09 02:33N 43°06' E 005°53'0 0.0
2014-Dec-09 01:33N 43°06' E 005°53'0 0.0
2014-Dec-09 00:33N 43°06' E 005°53'0 0.0
2014-Dec-08 23:33N 43°06' E 005°53'0 0.0
2014-Dec-08 22:33N 43°06' E 005°53'0 0.0
2014-Dec-08 21:33N 43°06' E 005°53'0 0.0
2014-Dec-08 20:33N 43°06' E 005°53'33 5.2
2014-Dec-08 14:19N 43°08' E 006°38'911.4
2014-Dec-08 13:33N 43°12' E 006°48'4 4.1
2014-Dec-08 12:33N 43°15' E 006°53'1 0.7
2014-Dec-08 11:25N 43°14' E 006°52'1 1.4
2014-Dec-08 10:33N 43°15' E 006°51'1 1.0
2014-Dec-08 09:33N 43°15' E 006°50'1 1.0
2014-Dec-08 08:20N 43°16' E 006°49'0 0.1
2014-Dec-08 07:33N 43°16' E 006°49'0 0.2
2014-Dec-08 06:33N 43°16' E 006°49'1 1.0
2014-Dec-08 05:33N 43°15' E 006°50'4 4.0
2014-Dec-08 04:33N 43°13' E 006°46'7 6.8
2014-Dec-08 03:33N 43°08' E 006°38'2 1.6
2014-Dec-08 02:14N 43°08' E 006°35'1 0.3
2014-Dec-07 22:31N 43°09' E 006°34'0 0.3
2014-Dec-07 21:30N 43°09' E 006°34'1 1.2
2014-Dec-07 20:32N 43°08' E 006°33'11 8.9
2014-Dec-07 19:20N 43°04' E 006°19'10 8.7
2014-Dec-07 18:13N 43°01' E 006°07'6 9.1
2014-Dec-07 17:33N 43°04' E 005°60'5 5.3
2014-Dec-07 16:31N 43°06' E 005°53'0 0.0
2014-Dec-07 15:31N 43°06' E 005°53'0 0.0
2014-Dec-07 14:31N 43°06' E 005°53'0 0.0
2014-Dec-07 13:28N 43°06' E 005°53'0 0.0
2014-Dec-07 12:34N 43°06' E 005°53'0 0.0
2014-Dec-07 11:33N 43°06' E 005°53'0 0.0
2014-Dec-07 10:33N 43°06' E 005°53'0 0.0
2014-Dec-07 09:32N 43°06' E 005°53'0 0.0
2014-Dec-07 08:32N 43°06' E 005°53'0 0.0
2014-Dec-07 07:31N 43°06' E 005°53'0 0.0
2014-Dec-07 06:31N 43°06' E 005°53'0 0.0
2014-Dec-07 05:34N 43°06' E 005°53'0 0.0
2014-Dec-07 04:33N 43°06' E 005°53'0 0.0
2014-Dec-07 03:33N 43°06' E 005°53'0 0.0
2014-Dec-07 02:32N 43°06' E 005°53'0 0.0
2014-Dec-07 01:32N 43°06' E 005°53'0 0.0
2014-Dec-07 00:31N 43°06' E 005°53'0 0.0
2014-Dec-06 23:31N 43°06' E 005°53'0 0.0
2014-Dec-06 22:33N 43°06' E 005°53'0 0.0
2014-Dec-06 21:33N 43°06' E 005°53'0 0.0
2014-Dec-06 20:33N 43°06' E 005°53'0 0.0
2014-Dec-06 19:32N 43°06' E 005°53'0 0.0
2014-Dec-06 18:32N 43°06' E 005°53'0 0.0
2014-Dec-06 17:31N 43°06' E 005°53'0 0.0
2014-Dec-06 16:31N 43°06' E 005°53'0 0.0
2014-Dec-06 15:33N 43°06' E 005°53'0 0.0
2014-Dec-06 14:33N 43°06' E 005°53'0 0.0
2014-Dec-06 13:33N 43°06' E 005°53'0 0.0
2014-Dec-06 12:32N 43°06' E 005°53'0 0.0
2014-Dec-06 11:32N 43°06' E 005°53'0 0.0
2014-Dec-06 10:31N 43°06' E 005°53'0 0.0
2014-Dec-06 09:31N 43°06' E 005°53'0 0.0
2014-Dec-06 08:33N 43°06' E 005°53'0 0.0
2014-Dec-06 07:33N 43°06' E 005°53'0 0.0
2014-Dec-06 06:32N 43°06' E 005°53'0 0.0
2014-Dec-06 05:32N 43°06' E 005°53'0 0.0
2014-Dec-06 04:32N 43°06' E 005°53'0 0.0
2014-Dec-06 03:31N 43°06' E 005°53'0 0.0
2014-Dec-06 02:31N 43°06' E 005°53'0 0.0
2014-Dec-06 01:33N 43°06' E 005°53'0 0.0
2014-Dec-06 00:33N 43°06' E 005°53'0 0.0
2014-Dec-05 23:32N 43°06' E 005°53'0 0.0
2014-Dec-05 22:32N 43°06' E 005°53'0 0.0
2014-Dec-05 21:32N 43°06' E 005°53'0 0.0
2014-Dec-05 20:31N 43°06' E 005°53'0 0.0
2014-Dec-05 19:31N 43°06' E 005°53'0 0.0
2014-Dec-05 18:33N 43°06' E 005°53'0 0.0
2014-Dec-05 17:32N 43°06' E 005°53'0 0.2
2014-Dec-05 16:33N 43°06' E 005°53'5 4.7
2014-Dec-05 15:33N 43°05' E 005°59'26 1.0
2014-Dec-04 12:33N 43°09' E 006°34'0 0.3
2014-Dec-04 11:31N 43°09' E 006°34'0 0.1
2014-Dec-04 10:12N 43°09' E 006°34'0 0.1
2014-Dec-04 09:28N 43°09' E 006°34'6 6.1
2014-Dec-04 08:33N 43°10' E 006°42'27 1.0
2014-Dec-03 05:19N 43°04' E 006°05'0 0.0
2014-Dec-02 23:32N 43°04' E 006°05'0 0.0
2014-Dec-02 21:33N 43°04' E 006°05'0 0.0
2014-Dec-02 17:31N 43°04' E 006°05'0 0.0
2014-Dec-02 16:33N 43°04' E 006°05'0 0.0
2014-Dec-02 15:33N 43°04' E 006°05'0 0.0
2014-Dec-02 14:33N 43°04' E 006°05'0 0.0
2014-Dec-02 13:32N 43°04' E 006°05'0 0.0
2014-Dec-02 12:32N 43°04' E 006°05'0 0.0
2014-Dec-02 11:31N 43°04' E 006°05'0 0.0
2014-Dec-02 10:31N 43°04' E 006°05'0 0.0
2014-Dec-02 09:33N 43°04' E 006°05'0 0.0
2014-Dec-02 08:30N 43°04' E 006°05'0 0.0
2014-Dec-02 07:29N 43°04' E 006°05'0 0.0
2014-Dec-02 06:32N 43°04' E 006°05'0 0.0
2014-Dec-02 05:31N 43°04' E 006°05'0 0.0
2014-Dec-02 04:31N 43°04' E 006°05'0 0.0
2014-Dec-02 03:31N 43°04' E 006°05'0 0.0
2014-Dec-02 02:33N 43°04' E 006°05'0 0.0
2014-Dec-02 01:33N 43°04' E 006°05'0 0.0
2014-Dec-02 00:32N 43°04' E 006°05'0 0.0
2014-Dec-01 23:32N 43°04' E 006°05'0 0.0
2014-Dec-01 22:31N 43°04' E 006°05'0 0.0
2014-Dec-01 21:31N 43°04' E 006°05'0 0.0
2014-Dec-01 20:28N 43°04' E 006°05'0 0.0
2014-Dec-01 19:33N 43°04' E 006°05'0 0.0
2014-Dec-01 18:33N 43°04' E 006°05'0 0.0
2014-Dec-01 17:32N 43°04' E 006°05'0 0.0
2014-Dec-01 16:32N 43°04' E 006°05'0 0.0
2014-Dec-01 15:31N 43°04' E 006°05'  

Dump ship's entire track history